sensor_id;sensor_type;location;lat;lon;timestamp;temperature;humidity
20735;DHT22;10528;52.124;5.196;2024-03-25T00:00:14;6.40;99.90
20735;DHT22;10528;52.124;5.196;2024-03-25T00:02:41;6.30;99.90
20735;DHT22;10528;52.124;5.196;2024-03-25T00:05:08;6.30;99.90
20735;DHT22;10528;52.124;5.196;2024-03-25T00:07:36;6.20;99.90
20735;DHT22;10528;52.124;5.196;2024-03-25T00:10:03;6.20;99.90
20735;DHT22;10528;52.124;5.196;2024-03-25T00:12:32;6.20;99.90
20735;DHT22;10528;52.124;5.196;2024-03-25T00:14:58;6.20;99.90
20735;DHT22;10528;52.124;5.196;2024-03-25T00:17:24;6.20;99.90
20735;DHT22;10528;52.124;5.196;2024-03-25T00:19:50;6.20;99.90
20735;DHT22;10528;52.124;5.196;2024-03-25T00:22:17;6.20;99.90
20735;DHT22;10528;52.124;5.196;2024-03-25T00:24:43;6.20;99.90
20735;DHT22;10528;52.124;5.196;2024-03-25T00:27:09;6.10;99.90
20735;DHT22;10528;52.124;5.196;2024-03-25T00:29:35;6.10;99.90
20735;DHT22;10528;52.124;5.196;2024-03-25T00:32:01;6.10;99.90
20735;DHT22;10528;52.124;5.196;2024-03-25T00:34:27;6.00;99.90
20735;DHT22;10528;52.124;5.196;2024-03-25T00:36:53;5.90;99.90
20735;DHT22;10528;52.124;5.196;2024-03-25T00:39:19;5.90;99.90
20735;DHT22;10528;52.124;5.196;2024-03-25T00:41:45;5.80;99.90
20735;DHT22;10528;52.124;5.196;2024-03-25T00:44:11;5.80;99.90
20735;DHT22;10528;52.124;5.196;2024-03-25T00:46:37;5.80;99.90
20735;DHT22;10528;52.124;5.196;2024-03-25T00:49:03;5.90;99.90
20735;DHT22;10528;52.124;5.196;2024-03-25T00:51:29;5.80;99.90
20735;DHT22;10528;52.124;5.196;2024-03-25T00:53:55;5.80;99.90
20735;DHT22;10528;52.124;5.196;2024-03-25T00:56:21;5.70;99.90
20735;DHT22;10528;52.124;5.196;2024-03-25T00:58:47;5.80;99.90
20735;DHT22;10528;52.124;5.196;2024-03-25T01:01:12;5.80;99.90
20735;DHT22;10528;52.124;5.196;2024-03-25T01:03:39;5.70;99.90
20735;DHT22;10528;52.124;5.196;2024-03-25T01:06:05;5.60;99.90
20735;DHT22;10528;52.124;5.196;2024-03-25T01:08:31;5.60;99.90
20735;DHT22;10528;52.124;5.196;2024-03-25T01:10:57;5.60;99.90
20735;DHT22;10528;52.124;5.196;2024-03-25T01:13:23;5.50;99.90
20735;DHT22;10528;52.124;5.196;2024-03-25T01:15:49;5.40;99.90
20735;DHT22;10528;52.124;5.196;2024-03-25T01:18:15;5.40;99.90
20735;DHT22;10528;52.124;5.196;2024-03-25T01:20:41;5.40;99.90
20735;DHT22;10528;52.124;5.196;2024-03-25T01:23:07;5.50;99.90
20735;DHT22;10528;52.124;5.196;2024-03-25T01:25:32;5.50;99.90
20735;DHT22;10528;52.124;5.196;2024-03-25T01:27:58;5.50;99.90
20735;DHT22;10528;52.124;5.196;2024-03-25T01:30:24;5.50;99.90
20735;DHT22;10528;52.124;5.196;2024-03-25T01:32:50;5.50;99.90
20735;DHT22;10528;52.124;5.196;2024-03-25T01:35:17;5.40;99.90
20735;DHT22;10528;52.124;5.196;2024-03-25T01:37:42;5.40;99.90
20735;DHT22;10528;52.124;5.196;2024-03-25T01:40:09;5.30;99.90
20735;DHT22;10528;52.124;5.196;2024-03-25T01:42:37;5.20;99.90
20735;DHT22;10528;52.124;5.196;2024-03-25T01:45:04;5.20;99.90
20735;DHT22;10528;52.124;5.196;2024-03-25T01:47:31;5.20;99.90
20735;DHT22;10528;52.124;5.196;2024-03-25T01:49:59;5.10;99.90
20735;DHT22;10528;52.124;5.196;2024-03-25T01:52:26;5.10;99.90
20735;DHT22;10528;52.124;5.196;2024-03-25T01:54:53;5.00;99.90
20735;DHT22;10528;52.124;5.196;2024-03-25T01:57:20;5.00;99.90
20735;DHT22;10528;52.124;5.196;2024-03-25T01:59:46;5.10;99.90
20735;DHT22;10528;52.124;5.196;2024-03-25T02:02:13;5.10;99.90
20735;DHT22;10528;52.124;5.196;2024-03-25T02:04:40;5.10;99.90
20735;DHT22;10528;52.124;5.196;2024-03-25T02:07:08;5.20;99.90
20735;DHT22;10528;52.124;5.196;2024-03-25T02:09:37;5.30;99.90
20735;DHT22;10528;52.124;5.196;2024-03-25T02:12:04;5.30;99.90
20735;DHT22;10528;52.124;5.196;2024-03-25T02:14:30;5.40;99.90
20735;DHT22;10528;52.124;5.196;2024-03-25T02:16:57;5.40;99.90
20735;DHT22;10528;52.124;5.196;2024-03-25T02:19:23;5.50;99.90
20735;DHT22;10528;52.124;5.196;2024-03-25T02:21:50;5.50;99.90
20735;DHT22;10528;52.124;5.196;2024-03-25T02:24:17;5.50;99.90
20735;DHT22;10528;52.124;5.196;2024-03-25T02:26:46;5.60;99.90
20735;DHT22;10528;52.124;5.196;2024-03-25T02:29:12;5.60;99.90
20735;DHT22;10528;52.124;5.196;2024-03-25T02:31:38;5.60;99.90
20735;DHT22;10528;52.124;5.196;2024-03-25T02:34:04;5.60;99.90
20735;DHT22;10528;52.124;5.196;2024-03-25T02:36:30;5.60;99.90
20735;DHT22;10528;52.124;5.196;2024-03-25T02:38:56;5.70;99.90
20735;DHT22;10528;52.124;5.196;2024-03-25T02:41:22;5.60;99.90
20735;DHT22;10528;52.124;5.196;2024-03-25T02:43:50;5.60;99.90
20735;DHT22;10528;52.124;5.196;2024-03-25T02:46:16;5.50;99.90
20735;DHT22;10528;52.124;5.196;2024-03-25T02:48:42;5.40;99.90
20735;DHT22;10528;52.124;5.196;2024-03-25T02:51:08;5.30;99.90
20735;DHT22;10528;52.124;5.196;2024-03-25T02:53:34;5.20;99.90
20735;DHT22;10528;52.124;5.196;2024-03-25T02:55:59;5.10;99.90
20735;DHT22;10528;52.124;5.196;2024-03-25T02:58:25;5.10;99.90
20735;DHT22;10528;52.124;5.196;2024-03-25T03:00:51;5.00;99.90
20735;DHT22;10528;52.124;5.196;2024-03-25T03:03:17;5.00;99.90
20735;DHT22;10528;52.124;5.196;2024-03-25T03:05:43;4.90;99.90
20735;DHT22;10528;52.124;5.196;2024-03-25T03:08:09;4.80;99.90
20735;DHT22;10528;52.124;5.196;2024-03-25T03:10:35;4.70;99.90
20735;DHT22;10528;52.124;5.196;2024-03-25T03:13:01;4.70;99.90
20735;DHT22;10528;52.124;5.196;2024-03-25T03:15:27;4.60;99.90
20735;DHT22;10528;52.124;5.196;2024-03-25T03:17:53;4.60;99.90
20735;DHT22;10528;52.124;5.196;2024-03-25T03:20:19;4.60;99.90
20735;DHT22;10528;52.124;5.196;2024-03-25T03:22:45;4.50;99.90
20735;DHT22;10528;52.124;5.196;2024-03-25T03:25:11;4.40;99.90
20735;DHT22;10528;52.124;5.196;2024-03-25T03:27:37;4.30;99.90
20735;DHT22;10528;52.124;5.196;2024-03-25T03:30:03;4.20;99.90
20735;DHT22;10528;52.124;5.196;2024-03-25T03:32:29;4.20;99.90
20735;DHT22;10528;52.124;5.196;2024-03-25T03:34:55;4.20;99.90
20735;DHT22;10528;52.124;5.196;2024-03-25T03:37:21;4.10;99.90
20735;DHT22;10528;52.124;5.196;2024-03-25T03:39:47;4.10;99.90
20735;DHT22;10528;52.124;5.196;2024-03-25T03:42:13;4.00;99.90
20735;DHT22;10528;52.124;5.196;2024-03-25T03:44:39;4.00;99.90
20735;DHT22;10528;52.124;5.196;2024-03-25T03:47:05;3.90;99.90
20735;DHT22;10528;52.124;5.196;2024-03-25T03:49:31;3.90;99.90
20735;DHT22;10528;52.124;5.196;2024-03-25T03:51:57;3.80;99.90
20735;DHT22;10528;52.124;5.196;2024-03-25T03:54:23;3.80;99.90
20735;DHT22;10528;52.124;5.196;2024-03-25T03:56:49;3.80;99.90
20735;DHT22;10528;52.124;5.196;2024-03-25T03:59:15;3.90;99.90
20735;DHT22;10528;52.124;5.196;2024-03-25T04:01:41;3.90;99.90
20735;DHT22;10528;52.124;5.196;2024-03-25T04:04:07;3.80;99.90
20735;DHT22;10528;52.124;5.196;2024-03-25T04:06:33;3.70;99.90
20735;DHT22;10528;52.124;5.196;2024-03-25T04:08:59;3.60;99.90
20735;DHT22;10528;52.124;5.196;2024-03-25T04:11:24;3.50;99.90
20735;DHT22;10528;52.124;5.196;2024-03-25T04:13:50;3.60;99.90
20735;DHT22;10528;52.124;5.196;2024-03-25T04:16:16;3.50;99.90
20735;DHT22;10528;52.124;5.196;2024-03-25T04:18:43;3.60;99.90
20735;DHT22;10528;52.124;5.196;2024-03-25T04:21:12;3.60;99.90
20735;DHT22;10528;52.124;5.196;2024-03-25T04:23:39;3.50;99.90
20735;DHT22;10528;52.124;5.196;2024-03-25T04:26:07;3.50;99.90
20735;DHT22;10528;52.124;5.196;2024-03-25T04:28:34;3.60;99.90
20735;DHT22;10528;52.124;5.196;2024-03-25T04:31:00;3.60;99.90
20735;DHT22;10528;52.124;5.196;2024-03-25T04:33:26;3.60;99.90
20735;DHT22;10528;52.124;5.196;2024-03-25T04:35:52;3.60;99.90
20735;DHT22;10528;52.124;5.196;2024-03-25T04:38:18;3.50;99.90
20735;DHT22;10528;52.124;5.196;2024-03-25T04:40:44;3.40;99.90
20735;DHT22;10528;52.124;5.196;2024-03-25T04:43:10;3.40;99.90
20735;DHT22;10528;52.124;5.196;2024-03-25T04:45:36;3.40;99.90
20735;DHT22;10528;52.124;5.196;2024-03-25T04:48:03;3.40;99.90
20735;DHT22;10528;52.124;5.196;2024-03-25T04:50:30;3.30;99.90
20735;DHT22;10528;52.124;5.196;2024-03-25T04:52:56;3.30;99.90
20735;DHT22;10528;52.124;5.196;2024-03-25T04:55:22;3.30;99.90
20735;DHT22;10528;52.124;5.196;2024-03-25T04:57:48;3.30;99.90
20735;DHT22;10528;52.124;5.196;2024-03-25T05:00:14;3.30;99.90
20735;DHT22;10528;52.124;5.196;2024-03-25T05:02:41;3.20;99.90
20735;DHT22;10528;52.124;5.196;2024-03-25T05:05:07;3.20;99.90
20735;DHT22;10528;52.124;5.196;2024-03-25T05:07:33;3.20;99.90
20735;DHT22;10528;52.124;5.196;2024-03-25T05:10:00;3.20;99.90
20735;DHT22;10528;52.124;5.196;2024-03-25T05:12:25;3.20;99.90
20735;DHT22;10528;52.124;5.196;2024-03-25T05:14:58;3.30;99.90
20735;DHT22;10528;52.124;5.196;2024-03-25T05:17:24;3.30;99.90
20735;DHT22;10528;52.124;5.196;2024-03-25T05:19:50;3.30;99.90
20735;DHT22;10528;52.124;5.196;2024-03-25T05:22:16;3.30;99.90
20735;DHT22;10528;52.124;5.196;2024-03-25T05:24:42;3.40;99.90
20735;DHT22;10528;52.124;5.196;2024-03-25T05:27:08;3.40;99.90
20735;DHT22;10528;52.124;5.196;2024-03-25T05:29:34;3.30;99.90
20735;DHT22;10528;52.124;5.196;2024-03-25T05:32:01;3.30;99.90
20735;DHT22;10528;52.124;5.196;2024-03-25T05:34:28;3.30;99.90
20735;DHT22;10528;52.124;5.196;2024-03-25T05:36:55;3.30;99.90
20735;DHT22;10528;52.124;5.196;2024-03-25T05:39:21;3.30;99.90
20735;DHT22;10528;52.124;5.196;2024-03-25T05:41:48;3.20;99.90
20735;DHT22;10528;52.124;5.196;2024-03-25T05:44:15;3.20;99.90
20735;DHT22;10528;52.124;5.196;2024-03-25T05:46:41;3.20;99.90
20735;DHT22;10528;52.124;5.196;2024-03-25T05:49:07;3.20;99.90
20735;DHT22;10528;52.124;5.196;2024-03-25T05:51:33;3.30;99.90
20735;DHT22;10528;52.124;5.196;2024-03-25T05:53:59;3.30;99.90
20735;DHT22;10528;52.124;5.196;2024-03-25T05:56:26;3.30;99.90
20735;DHT22;10528;52.124;5.196;2024-03-25T05:58:59;3.40;99.90
20735;DHT22;10528;52.124;5.196;2024-03-25T06:01:26;3.40;99.90
20735;DHT22;10528;52.124;5.196;2024-03-25T06:03:53;3.40;99.90
20735;DHT22;10528;52.124;5.196;2024-03-25T06:06:19;3.30;99.90
20735;DHT22;10528;52.124;5.196;2024-03-25T06:08:45;3.40;99.90
20735;DHT22;10528;52.124;5.196;2024-03-25T06:11:11;3.50;99.90
20735;DHT22;10528;52.124;5.196;2024-03-25T06:13:37;3.60;99.90
20735;DHT22;10528;52.124;5.196;2024-03-25T06:16:03;3.80;99.90
20735;DHT22;10528;52.124;5.196;2024-03-25T06:18:29;4.20;99.90
20735;DHT22;10528;52.124;5.196;2024-03-25T06:20:55;4.50;99.90
20735;DHT22;10528;52.124;5.196;2024-03-25T06:23:26;4.60;99.90
20735;DHT22;10528;52.124;5.196;2024-03-25T06:25:53;5.00;99.90
20735;DHT22;10528;52.124;5.196;2024-03-25T06:28:20;5.40;99.90
20735;DHT22;10528;52.124;5.196;2024-03-25T06:30:47;5.60;99.90
20735;DHT22;10528;52.124;5.196;2024-03-25T06:33:33;5.60;99.90
20735;DHT22;10528;52.124;5.196;2024-03-25T06:36:19;5.50;99.90
20735;DHT22;10528;52.124;5.196;2024-03-25T06:38:45;5.40;99.90
20735;DHT22;10528;52.124;5.196;2024-03-25T06:41:11;5.50;99.90
20735;DHT22;10528;52.124;5.196;2024-03-25T06:43:38;5.50;99.90
20735;DHT22;10528;52.124;5.196;2024-03-25T06:46:05;5.90;99.90
20735;DHT22;10528;52.124;5.196;2024-03-25T06:48:32;6.00;99.90
20735;DHT22;10528;52.124;5.196;2024-03-25T06:51:00;5.80;99.90
20735;DHT22;10528;52.124;5.196;2024-03-25T06:53:29;5.60;99.90
20735;DHT22;10528;52.124;5.196;2024-03-25T06:55:57;5.60;99.90
20735;DHT22;10528;52.124;5.196;2024-03-25T06:58:26;5.70;99.90
20735;DHT22;10528;52.124;5.196;2024-03-25T07:00:53;5.80;99.90
20735;DHT22;10528;52.124;5.196;2024-03-25T07:03:21;5.90;99.90
20735;DHT22;10528;52.124;5.196;2024-03-25T07:05:49;6.00;99.90
20735;DHT22;10528;52.124;5.196;2024-03-25T07:08:20;6.00;99.90
20735;DHT22;10528;52.124;5.196;2024-03-25T07:10:46;6.10;99.90
20735;DHT22;10528;52.124;5.196;2024-03-25T07:13:13;6.20;99.90
20735;DHT22;10528;52.124;5.196;2024-03-25T07:15:40;6.40;99.90
20735;DHT22;10528;52.124;5.196;2024-03-25T07:18:06;6.50;99.90
20735;DHT22;10528;52.124;5.196;2024-03-25T07:20:32;6.60;99.90
20735;DHT22;10528;52.124;5.196;2024-03-25T07:22:58;6.60;99.90
20735;DHT22;10528;52.124;5.196;2024-03-25T07:25:25;6.70;99.90
20735;DHT22;10528;52.124;5.196;2024-03-25T07:27:52;6.70;99.90
20735;DHT22;10528;52.124;5.196;2024-03-25T07:30:18;6.70;99.90
20735;DHT22;10528;52.124;5.196;2024-03-25T07:32:44;6.80;99.90
20735;DHT22;10528;52.124;5.196;2024-03-25T07:35:13;6.80;99.90
20735;DHT22;10528;52.124;5.196;2024-03-25T07:37:43;6.90;99.90
20735;DHT22;10528;52.124;5.196;2024-03-25T07:40:10;6.90;99.90
20735;DHT22;10528;52.124;5.196;2024-03-25T07:42:38;7.00;99.90
20735;DHT22;10528;52.124;5.196;2024-03-25T07:45:04;7.00;99.90
20735;DHT22;10528;52.124;5.196;2024-03-25T07:47:32;7.10;99.90
20735;DHT22;10528;52.124;5.196;2024-03-25T07:49:58;7.20;99.90
20735;DHT22;10528;52.124;5.196;2024-03-25T07:52:25;7.20;99.90
20735;DHT22;10528;52.124;5.196;2024-03-25T07:54:51;7.20;99.90
20735;DHT22;10528;52.124;5.196;2024-03-25T07:57:18;7.20;99.90
20735;DHT22;10528;52.124;5.196;2024-03-25T07:59:45;7.30;99.90
20735;DHT22;10528;52.124;5.196;2024-03-25T08:02:11;7.40;99.90
20735;DHT22;10528;52.124;5.196;2024-03-25T08:04:37;7.40;99.90
20735;DHT22;10528;52.124;5.196;2024-03-25T08:07:03;7.50;99.90
20735;DHT22;10528;52.124;5.196;2024-03-25T08:09:29;7.50;99.90
20735;DHT22;10528;52.124;5.196;2024-03-25T08:11:55;7.60;99.90
20735;DHT22;10528;52.124;5.196;2024-03-25T08:14:21;7.70;99.90
20735;DHT22;10528;52.124;5.196;2024-03-25T08:16:48;7.70;99.90
20735;DHT22;10528;52.124;5.196;2024-03-25T08:19:14;7.80;99.90
20735;DHT22;10528;52.124;5.196;2024-03-25T08:21:40;7.90;99.90
20735;DHT22;10528;52.124;5.196;2024-03-25T08:24:06;8.00;99.90
20735;DHT22;10528;52.124;5.196;2024-03-25T08:26:32;7.90;99.90
20735;DHT22;10528;52.124;5.196;2024-03-25T08:28:59;8.00;99.90
20735;DHT22;10528;52.124;5.196;2024-03-25T08:31:25;8.00;99.90
20735;DHT22;10528;52.124;5.196;2024-03-25T08:33:51;8.10;99.90
20735;DHT22;10528;52.124;5.196;2024-03-25T08:36:17;8.20;99.90
20735;DHT22;10528;52.124;5.196;2024-03-25T08:38:44;8.20;99.90
20735;DHT22;10528;52.124;5.196;2024-03-25T08:41:10;8.20;99.90
20735;DHT22;10528;52.124;5.196;2024-03-25T08:43:36;8.30;99.90
20735;DHT22;10528;52.124;5.196;2024-03-25T08:46:02;8.30;99.90
20735;DHT22;10528;52.124;5.196;2024-03-25T08:48:29;8.40;99.90
20735;DHT22;10528;52.124;5.196;2024-03-25T08:50:56;8.40;99.90
20735;DHT22;10528;52.124;5.196;2024-03-25T08:53:22;8.60;99.90
20735;DHT22;10528;52.124;5.196;2024-03-25T08:55:48;8.70;99.90
20735;DHT22;10528;52.124;5.196;2024-03-25T08:58:15;8.80;99.90
20735;DHT22;10528;52.124;5.196;2024-03-25T09:00:42;8.90;99.90
20735;DHT22;10528;52.124;5.196;2024-03-25T09:03:09;8.90;99.90
20735;DHT22;10528;52.124;5.196;2024-03-25T09:05:36;9.10;99.90
20735;DHT22;10528;52.124;5.196;2024-03-25T09:08:05;9.10;99.90
20735;DHT22;10528;52.124;5.196;2024-03-25T09:10:32;9.10;99.90
20735;DHT22;10528;52.124;5.196;2024-03-25T09:13:17;9.20;99.90
20735;DHT22;10528;52.124;5.196;2024-03-25T09:15:43;9.30;99.90
20735;DHT22;10528;52.124;5.196;2024-03-25T09:18:09;9.30;99.90
20735;DHT22;10528;52.124;5.196;2024-03-25T09:20:35;9.40;99.90
20735;DHT22;10528;52.124;5.196;2024-03-25T09:23:01;9.50;99.90
20735;DHT22;10528;52.124;5.196;2024-03-25T09:25:27;9.50;99.90
20735;DHT22;10528;52.124;5.196;2024-03-25T09:27:52;9.60;99.90
20735;DHT22;10528;52.124;5.196;2024-03-25T09:30:18;9.80;99.90
20735;DHT22;10528;52.124;5.196;2024-03-25T09:32:44;9.80;99.90
20735;DHT22;10528;52.124;5.196;2024-03-25T09:35:11;9.70;99.90
20735;DHT22;10528;52.124;5.196;2024-03-25T09:37:38;9.90;99.90
20735;DHT22;10528;52.124;5.196;2024-03-25T09:40:05;10.10;99.90
20735;DHT22;10528;52.124;5.196;2024-03-25T09:45:12;10.20;99.90
20735;DHT22;10528;52.124;5.196;2024-03-25T09:47:41;10.40;99.90
20735;DHT22;10528;52.124;5.196;2024-03-25T09:50:15;10.60;99.90
20735;DHT22;10528;52.124;5.196;2024-03-25T09:52:47;10.70;99.90
20735;DHT22;10528;52.124;5.196;2024-03-25T09:55:15;10.90;99.90
20735;DHT22;10528;52.124;5.196;2024-03-25T09:57:45;10.80;99.90
20735;DHT22;10528;52.124;5.196;2024-03-25T10:00:12;10.90;99.90
20735;DHT22;10528;52.124;5.196;2024-03-25T10:02:40;10.90;99.90
20735;DHT22;10528;52.124;5.196;2024-03-25T10:05:07;11.00;99.90
20735;DHT22;10528;52.124;5.196;2024-03-25T10:07:34;10.90;99.90
20735;DHT22;10528;52.124;5.196;2024-03-25T10:10:04;11.00;99.90
20735;DHT22;10528;52.124;5.196;2024-03-25T10:12:31;11.20;99.90
20735;DHT22;10528;52.124;5.196;2024-03-25T10:14:57;11.20;99.90
20735;DHT22;10528;52.124;5.196;2024-03-25T10:17:24;11.10;99.90
20735;DHT22;10528;52.124;5.196;2024-03-25T10:19:50;11.20;99.90
20735;DHT22;10528;52.124;5.196;2024-03-25T10:22:18;11.20;99.90
20735;DHT22;10528;52.124;5.196;2024-03-25T10:24:45;11.30;99.90
20735;DHT22;10528;52.124;5.196;2024-03-25T10:27:18;11.30;99.90
20735;DHT22;10528;52.124;5.196;2024-03-25T10:29:51;11.60;99.90
20735;DHT22;10528;52.124;5.196;2024-03-25T10:32:19;11.50;99.90
20735;DHT22;10528;52.124;5.196;2024-03-25T10:34:45;11.60;99.90
20735;DHT22;10528;52.124;5.196;2024-03-25T10:37:12;11.60;99.90
20735;DHT22;10528;52.124;5.196;2024-03-25T10:39:50;11.50;99.90
20735;DHT22;10528;52.124;5.196;2024-03-25T10:42:19;11.60;99.90
20735;DHT22;10528;52.124;5.196;2024-03-25T10:44:49;11.70;99.90
20735;DHT22;10528;52.124;5.196;2024-03-25T10:47:27;11.90;99.90
20735;DHT22;10528;52.124;5.196;2024-03-25T10:49:57;12.00;99.90
20735;DHT22;10528;52.124;5.196;2024-03-25T10:52:26;12.10;99.90
20735;DHT22;10528;52.124;5.196;2024-03-25T10:54:53;12.10;99.90
20735;DHT22;10528;52.124;5.196;2024-03-25T10:57:20;12.10;99.90
20735;DHT22;10528;52.124;5.196;2024-03-25T10:59:49;12.00;99.90
20735;DHT22;10528;52.124;5.196;2024-03-25T11:02:15;12.10;99.90
20735;DHT22;10528;52.124;5.196;2024-03-25T11:04:45;12.20;99.90
20735;DHT22;10528;52.124;5.196;2024-03-25T11:07:14;12.10;99.90
20735;DHT22;10528;52.124;5.196;2024-03-25T11:09:41;12.10;99.90
20735;DHT22;10528;52.124;5.196;2024-03-25T11:12:11;12.50;99.90
20735;DHT22;10528;52.124;5.196;2024-03-25T11:14:40;12.60;99.90
20735;DHT22;10528;52.124;5.196;2024-03-25T11:17:16;12.80;99.90
20735;DHT22;10528;52.124;5.196;2024-03-25T11:19:42;12.50;99.90
20735;DHT22;10528;52.124;5.196;2024-03-25T11:22:09;12.50;99.90
20735;DHT22;10528;52.124;5.196;2024-03-25T11:24:37;12.60;99.90
20735;DHT22;10528;52.124;5.196;2024-03-25T11:27:07;12.50;99.90
20735;DHT22;10528;52.124;5.196;2024-03-25T11:29:34;12.60;99.90
20735;DHT22;10528;52.124;5.196;2024-03-25T11:32:05;12.60;99.90
20735;DHT22;10528;52.124;5.196;2024-03-25T11:34:32;12.50;99.90
20735;DHT22;10528;52.124;5.196;2024-03-25T11:36:58;12.50;99.90
20735;DHT22;10528;52.124;5.196;2024-03-25T11:39:24;12.60;99.90
20735;DHT22;10528;52.124;5.196;2024-03-25T11:41:52;13.00;99.90
20735;DHT22;10528;52.124;5.196;2024-03-25T11:44:19;13.10;99.90
20735;DHT22;10528;52.124;5.196;2024-03-25T11:46:45;13.20;99.90
20735;DHT22;10528;52.124;5.196;2024-03-25T11:49:15;13.20;99.90
20735;DHT22;10528;52.124;5.196;2024-03-25T11:51:44;13.00;99.90
20735;DHT22;10528;52.124;5.196;2024-03-25T11:54:12;13.30;99.90
20735;DHT22;10528;52.124;5.196;2024-03-25T11:56:40;13.40;99.90
20735;DHT22;10528;52.124;5.196;2024-03-25T11:59:07;13.30;99.90
20735;DHT22;10528;52.124;5.196;2024-03-25T12:01:34;13.30;99.90
20735;DHT22;10528;52.124;5.196;2024-03-25T12:04:11;13.20;99.90
20735;DHT22;10528;52.124;5.196;2024-03-25T12:06:38;13.00;99.90
20735;DHT22;10528;52.124;5.196;2024-03-25T12:09:04;13.00;99.90
20735;DHT22;10528;52.124;5.196;2024-03-25T12:11:49;13.00;99.90
20735;DHT22;10528;52.124;5.196;2024-03-25T12:14:15;13.10;99.90
20735;DHT22;10528;52.124;5.196;2024-03-25T12:16:42;13.40;99.90
20735;DHT22;10528;52.124;5.196;2024-03-25T12:19:08;13.70;99.90
20735;DHT22;10528;52.124;5.196;2024-03-25T12:21:34;13.70;99.90
20735;DHT22;10528;52.124;5.196;2024-03-25T12:24:00;13.70;99.90
20735;DHT22;10528;52.124;5.196;2024-03-25T12:26:26;13.80;99.90
20735;DHT22;10528;52.124;5.196;2024-03-25T12:28:52;13.80;99.90
20735;DHT22;10528;52.124;5.196;2024-03-25T12:31:18;13.70;99.90
20735;DHT22;10528;52.124;5.196;2024-03-25T12:33:44;13.90;99.90
20735;DHT22;10528;52.124;5.196;2024-03-25T12:36:13;13.70;99.90
20735;DHT22;10528;52.124;5.196;2024-03-25T12:38:39;13.80;99.90
20735;DHT22;10528;52.124;5.196;2024-03-25T12:41:12;13.80;99.90
20735;DHT22;10528;52.124;5.196;2024-03-25T12:43:44;13.70;99.90
20735;DHT22;10528;52.124;5.196;2024-03-25T12:46:11;13.90;99.90
20735;DHT22;10528;52.124;5.196;2024-03-25T12:48:38;14.00;99.90
20735;DHT22;10528;52.124;5.196;2024-03-25T12:51:04;13.70;99.90
20735;DHT22;10528;52.124;5.196;2024-03-25T12:53:30;14.00;99.90
20735;DHT22;10528;52.124;5.196;2024-03-25T12:55:57;14.10;99.90
20735;DHT22;10528;52.124;5.196;2024-03-25T12:58:22;14.00;99.90
20735;DHT22;10528;52.124;5.196;2024-03-25T13:00:49;14.10;99.90
20735;DHT22;10528;52.124;5.196;2024-03-25T13:03:15;14.00;99.90
20735;DHT22;10528;52.124;5.196;2024-03-25T13:05:43;13.70;99.90
20735;DHT22;10528;52.124;5.196;2024-03-25T13:08:09;13.80;99.90
20735;DHT22;10528;52.124;5.196;2024-03-25T13:10:36;13.40;99.90
20735;DHT22;10528;52.124;5.196;2024-03-25T13:13:02;13.20;99.90
20735;DHT22;10528;52.124;5.196;2024-03-25T13:15:28;13.10;99.90
20735;DHT22;10528;52.124;5.196;2024-03-25T13:17:54;13.30;99.90
20735;DHT22;10528;52.124;5.196;2024-03-25T13:20:20;13.00;99.90
20735;DHT22;10528;52.124;5.196;2024-03-25T13:22:48;12.90;99.90
20735;DHT22;10528;52.124;5.196;2024-03-25T13:25:15;13.10;99.90
20735;DHT22;10528;52.124;5.196;2024-03-25T13:27:41;13.50;99.90
20735;DHT22;10528;52.124;5.196;2024-03-25T13:30:07;13.50;99.90
20735;DHT22;10528;52.124;5.196;2024-03-25T13:32:33;13.50;99.90
20735;DHT22;10528;52.124;5.196;2024-03-25T13:34:59;13.60;99.90
20735;DHT22;10528;52.124;5.196;2024-03-25T13:37:27;13.60;99.90
20735;DHT22;10528;52.124;5.196;2024-03-25T13:39:53;13.60;99.90
20735;DHT22;10528;52.124;5.196;2024-03-25T13:42:19;13.50;99.90
20735;DHT22;10528;52.124;5.196;2024-03-25T13:44:45;13.40;99.90
20735;DHT22;10528;52.124;5.196;2024-03-25T13:47:10;13.40;99.90
20735;DHT22;10528;52.124;5.196;2024-03-25T13:49:36;13.30;99.90
20735;DHT22;10528;52.124;5.196;2024-03-25T13:52:03;13.30;99.90
20735;DHT22;10528;52.124;5.196;2024-03-25T13:54:30;13.30;99.90
20735;DHT22;10528;52.124;5.196;2024-03-25T13:56:59;13.20;99.90
20735;DHT22;10528;52.124;5.196;2024-03-25T13:59:25;13.30;99.90
20735;DHT22;10528;52.124;5.196;2024-03-25T14:01:51;13.20;99.90
20735;DHT22;10528;52.124;5.196;2024-03-25T14:04:20;13.50;99.90
20735;DHT22;10528;52.124;5.196;2024-03-25T14:06:46;13.50;99.90
20735;DHT22;10528;52.124;5.196;2024-03-25T14:09:24;13.50;99.90
20735;DHT22;10528;52.124;5.196;2024-03-25T14:11:51;13.30;99.90
20735;DHT22;10528;52.124;5.196;2024-03-25T14:14:17;13.30;99.90
20735;DHT22;10528;52.124;5.196;2024-03-25T14:16:43;13.30;99.90
20735;DHT22;10528;52.124;5.196;2024-03-25T14:19:09;13.20;99.90
20735;DHT22;10528;52.124;5.196;2024-03-25T14:21:35;13.20;99.90
20735;DHT22;10528;52.124;5.196;2024-03-25T14:24:01;13.30;99.90
20735;DHT22;10528;52.124;5.196;2024-03-25T14:26:28;13.30;99.90
20735;DHT22;10528;52.124;5.196;2024-03-25T14:28:54;13.10;99.90
20735;DHT22;10528;52.124;5.196;2024-03-25T14:31:20;13.20;99.90
20735;DHT22;10528;52.124;5.196;2024-03-25T14:33:45;13.20;99.90
20735;DHT22;10528;52.124;5.196;2024-03-25T14:36:11;13.10;99.90
20735;DHT22;10528;52.124;5.196;2024-03-25T14:38:37;13.00;99.90
20735;DHT22;10528;52.124;5.196;2024-03-25T14:41:05;13.10;99.90
20735;DHT22;10528;52.124;5.196;2024-03-25T14:43:31;13.20;99.90
20735;DHT22;10528;52.124;5.196;2024-03-25T14:45:57;13.10;99.90
20735;DHT22;10528;52.124;5.196;2024-03-25T14:48:23;13.00;99.90
20735;DHT22;10528;52.124;5.196;2024-03-25T14:50:49;12.90;99.90
20735;DHT22;10528;52.124;5.196;2024-03-25T14:53:15;13.00;99.90
20735;DHT22;10528;52.124;5.196;2024-03-25T14:55:42;12.90;99.90
20735;DHT22;10528;52.124;5.196;2024-03-25T14:58:08;12.80;99.90
20735;DHT22;10528;52.124;5.196;2024-03-25T15:00:34;12.80;99.90
20735;DHT22;10528;52.124;5.196;2024-03-25T15:03:00;12.90;99.90
20735;DHT22;10528;52.124;5.196;2024-03-25T15:05:26;12.80;99.90
20735;DHT22;10528;52.124;5.196;2024-03-25T15:07:52;12.80;99.90
20735;DHT22;10528;52.124;5.196;2024-03-25T15:10:18;12.90;99.90
20735;DHT22;10528;52.124;5.196;2024-03-25T15:12:46;12.90;99.90
20735;DHT22;10528;52.124;5.196;2024-03-25T15:15:12;13.00;99.90
20735;DHT22;10528;52.124;5.196;2024-03-25T15:17:38;12.90;99.90
20735;DHT22;10528;52.124;5.196;2024-03-25T15:20:05;12.90;99.90
20735;DHT22;10528;52.124;5.196;2024-03-25T15:22:31;12.70;99.90
20735;DHT22;10528;52.124;5.196;2024-03-25T15:24:58;12.70;99.90
20735;DHT22;10528;52.124;5.196;2024-03-25T15:27:24;12.70;99.90
20735;DHT22;10528;52.124;5.196;2024-03-25T15:29:49;12.60;99.90
20735;DHT22;10528;52.124;5.196;2024-03-25T15:32:15;12.60;99.90
20735;DHT22;10528;52.124;5.196;2024-03-25T15:34:42;12.60;99.90
20735;DHT22;10528;52.124;5.196;2024-03-25T15:37:08;12.70;99.90
20735;DHT22;10528;52.124;5.196;2024-03-25T15:39:36;12.60;99.90